createdAt,value
2019-03-09T00:08:28.932Z,98771.00
2019-03-09T00:18:30.339Z,98782.38
2019-03-09T00:28:31.048Z,98744.63
2019-03-09T00:38:31.803Z,98742.34
2019-03-09T00:48:32.444Z,98726.70
2019-03-09T00:58:33.110Z,98706.83
2019-03-09T01:08:34.173Z,98671.31
2019-03-09T01:18:35.103Z,98678.98
2019-03-09T01:28:35.796Z,98649.16
2019-03-09T01:38:36.522Z,98652.43
2019-03-09T01:48:37.194Z,98619.52
2019-03-09T01:58:37.877Z,98595.27
2019-03-09T02:08:41.534Z,98581.59
2019-03-09T02:18:44.310Z,98547.59
2019-03-09T02:28:45.334Z,98513.20
2019-03-09T02:38:46.313Z,98486.63
2019-03-09T02:48:47.041Z,98493.61
2019-03-09T02:58:47.713Z,98494.59
2019-03-09T03:08:51.511Z,98480.00
2019-03-09T03:18:52.256Z,98458.19
2019-03-09T03:28:52.932Z,98480.52
2019-03-09T03:38:53.719Z,98475.52
2019-03-09T03:48:54.483Z,98475.52
2019-03-09T03:58:55.174Z,98146.31
2019-03-09T04:08:55.864Z,99613.94
2019-03-09T04:18:56.560Z,99560.70
2019-03-09T04:28:57.279Z,99488.02
2019-03-09T04:38:58.256Z,99431.81
2019-03-09T04:48:58.901Z,99461.66
2019-03-09T04:58:59.921Z,99509.80
2019-03-09T05:09:04.629Z,99585.95
2019-03-09T05:19:05.387Z,99627.42
2019-03-09T05:29:06.312Z,99715.09
2019-03-09T05:39:07.046Z,99789.72
2019-03-09T05:49:07.722Z,99830.73
2019-03-09T05:59:08.405Z,99931.17
2019-03-09T06:09:09.352Z,100035.92
2019-03-09T06:19:10.318Z,100039.57
2019-03-09T06:29:10.973Z,100014.52
2019-03-09T06:39:11.643Z,100050.50
2019-03-09T06:49:12.331Z,100014.42
2019-03-09T06:59:13.047Z,99831.48
2019-03-09T07:09:13.694Z,99640.61
2019-03-09T07:19:14.712Z,99421.28
2019-03-09T07:29:15.627Z,99217.19
2019-03-09T07:39:16.525Z,99024.27
2019-03-09T07:49:17.472Z,98837.88
2019-03-09T07:59:18.388Z,98698.77
2019-03-09T08:09:19.386Z,98722.64
2019-03-09T08:19:20.044Z,98752.09
2019-03-09T08:29:21.032Z,98783.76
2019-03-09T08:39:21.933Z,98798.69
2019-03-09T08:49:22.850Z,98809.14
2019-03-09T08:59:23.563Z,98807.34
2019-03-09T09:09:25.530Z,98811.42
2019-03-09T09:19:26.172Z,98799.14
2019-03-09T09:29:27.099Z,98814.16
2019-03-09T09:39:27.863Z,98778.20
2019-03-09T09:49:28.773Z,98804.47
2019-03-09T09:59:29.662Z,98806.42
2019-03-09T10:09:30.534Z,98774.45
2019-03-09T10:19:31.223Z,98804.13
2019-03-09T10:29:31.903Z,98779.14
2019-03-09T10:39:32.569Z,98797.59
2019-03-09T10:49:33.267Z,98789.42
2019-03-09T10:59:37.991Z,98757.36
2019-03-09T11:09:38.700Z,98744.34
2019-03-09T11:19:39.398Z,98715.47
2019-03-09T11:29:40.271Z,98730.53
2019-03-09T11:39:41.223Z,98748.06
2019-03-09T11:49:41.959Z,98756.72
2019-03-09T11:59:42.661Z,98665.44
2019-03-09T12:09:43.332Z,98671.62
2019-03-09T12:19:44.025Z,98680.88
2019-03-09T12:29:44.721Z,98703.56
2019-03-09T12:39:45.364Z,98666.42
2019-03-09T12:49:46.104Z,98609.30
2019-03-09T12:59:46.763Z,98574.78
2019-03-09T13:09:47.452Z,98513.52
2019-03-09T13:19:48.111Z,98515.95
2019-03-09T13:29:48.800Z,98469.59
2019-03-09T13:39:49.457Z,98446.14
2019-03-09T13:49:52.558Z,98412.61
2019-03-09T13:59:53.203Z,98388.39
2019-03-09T14:09:53.833Z,98278.08
2019-03-09T14:19:54.822Z,98298.31
2019-03-09T14:29:55.502Z,98338.23
2019-03-09T14:39:56.572Z,98296.20
2019-03-09T14:49:57.245Z,98281.50
2019-03-09T14:59:57.944Z,98267.61
2019-03-09T15:09:58.617Z,98319.32
2019-03-09T15:19:59.381Z,98310.27
2019-03-09T15:30:00.163Z,98338.02
2019-03-09T15:40:01.063Z,98342.95
2019-03-09T15:50:05.100Z,98325.98
2019-03-09T16:00:12.003Z,98310.27
2019-03-09T16:10:20.116Z,98248.84
2019-03-09T16:20:25.287Z,98151.33
2019-03-09T16:30:26.638Z,98124.83
2019-03-09T16:40:27.571Z,98173.69
2019-03-09T16:50:28.531Z,98224.77
2019-03-09T17:00:29.298Z,98262.45
2019-03-09T17:10:32.779Z,98262.41
2019-03-09T17:20:33.501Z,98346.25
2019-03-09T17:30:34.188Z,98393.22
2019-03-09T17:40:35.133Z,98419.50
2019-03-09T17:50:36.752Z,98460.30
2019-03-09T18:00:42.515Z,98465.05
2019-03-09T18:10:46.487Z,98915.25
2019-03-09T18:20:47.160Z,98795.39
2019-03-09T18:30:47.816Z,98910.91
2019-03-09T18:40:49.767Z,98872.75
2019-03-09T18:50:50.767Z,98900.01
2019-03-09T19:00:51.750Z,98913.78
2019-03-09T19:10:52.623Z,98951.72
2019-03-09T19:20:53.543Z,98939.23
2019-03-09T19:30:54.499Z,98970.19
2019-03-09T19:40:55.486Z,98982.52
2019-03-09T19:50:56.405Z,98979.98
2019-03-09T20:00:57.472Z,99013.91
2019-03-09T20:10:58.574Z,99031.98
2019-03-09T20:20:59.485Z,99055.09
2019-03-09T20:31:00.451Z,99075.56
2019-03-09T20:41:01.371Z,99101.52
2019-03-09T20:51:07.824Z,99112.78
2019-03-09T21:01:08.761Z,99113.41
2019-03-09T21:11:09.515Z,99135.13
2019-03-09T21:21:10.449Z,99127.19
2019-03-09T21:31:11.453Z,99121.84
2019-03-09T21:41:12.431Z,99108.34
2019-03-09T21:51:13.054Z,99109.07
2019-03-09T22:01:13.986Z,99114.09
2019-03-09T22:11:14.896Z,99087.16
2019-03-09T22:21:15.855Z,99096.17
2019-03-09T22:31:16.583Z,99095.97
2019-03-09T22:41:17.536Z,99094.31
2019-03-09T22:51:18.189Z,99108.96
2019-03-09T23:01:19.219Z,99090.71
2019-03-09T23:11:20.137Z,99070.02
2019-03-09T23:21:21.109Z,99044.36
2019-03-09T23:31:21.859Z,99034.86
2019-03-09T23:41:22.866Z,98973.45
2019-03-09T23:51:23.622Z,98900.91
